sensor_id;sensor_type;location;lat;lon;timestamp;P1;durP1;ratioP1;P2;durP2;ratioP2
73266;SDS011;61495;53.400;7.608;2023-04-01T00:01:43;7.30;;;4.47;;
73266;SDS011;61495;53.400;7.608;2023-04-01T00:04:08;8.85;;;5.00;;
73266;SDS011;61495;53.400;7.608;2023-04-01T00:06:34;6.68;;;5.03;;
73266;SDS011;61495;53.400;7.608;2023-04-01T00:08:59;6.05;;;4.00;;
73266;SDS011;61495;53.400;7.608;2023-04-01T00:11:25;6.68;;;4.70;;
73266;SDS011;61495;53.400;7.608;2023-04-01T00:13:52;8.13;;;4.68;;
73266;SDS011;61495;53.400;7.608;2023-04-01T00:16:17;6.53;;;4.47;;
73266;SDS011;61495;53.400;7.608;2023-04-01T00:18:43;7.85;;;4.43;;
73266;SDS011;61495;53.400;7.608;2023-04-01T00:21:08;7.63;;;4.68;;
73266;SDS011;61495;53.400;7.608;2023-04-01T00:23:34;7.53;;;4.60;;
73266;SDS011;61495;53.400;7.608;2023-04-01T00:26:00;7.57;;;4.00;;
73266;SDS011;61495;53.400;7.608;2023-04-01T00:28:27;7.25;;;4.30;;
73266;SDS011;61495;53.400;7.608;2023-04-01T00:30:53;7.78;;;5.10;;
73266;SDS011;61495;53.400;7.608;2023-04-01T00:33:18;7.97;;;4.97;;
73266;SDS011;61495;53.400;7.608;2023-04-01T00:35:45;8.07;;;4.93;;
73266;SDS011;61495;53.400;7.608;2023-04-01T00:38:10;8.32;;;4.25;;
73266;SDS011;61495;53.400;7.608;2023-04-01T00:40:40;8.55;;;5.35;;
73266;SDS011;61495;53.400;7.608;2023-04-01T00:43:14;8.40;;;5.22;;
73266;SDS011;61495;53.400;7.608;2023-04-01T00:45:44;8.48;;;5.47;;
73266;SDS011;61495;53.400;7.608;2023-04-01T00:48:16;9.80;;;5.80;;
73266;SDS011;61495;53.400;7.608;2023-04-01T00:50:47;9.13;;;4.82;;
73266;SDS011;61495;53.400;7.608;2023-04-01T00:53:24;11.02;;;5.03;;
73266;SDS011;61495;53.400;7.608;2023-04-01T00:55:53;10.65;;;6.45;;
73266;SDS011;61495;53.400;7.608;2023-04-01T00:58:29;10.27;;;6.18;;
73266;SDS011;61495;53.400;7.608;2023-04-01T01:00:58;11.95;;;6.35;;
73266;SDS011;61495;53.400;7.608;2023-04-01T01:03:24;10.25;;;5.68;;
73266;SDS011;61495;53.400;7.608;2023-04-01T01:06:03;12.30;;;6.85;;
73266;SDS011;61495;53.400;7.608;2023-04-01T01:09:07;10.65;;;5.82;;
73266;SDS011;61495;53.400;7.608;2023-04-01T01:11:44;8.68;;;5.40;;
73266;SDS011;61495;53.400;7.608;2023-04-01T01:27:54;9.90;;;6.00;;
73266;SDS011;61495;53.400;7.608;2023-04-01T01:36:40;10.18;;;5.63;;
73266;SDS011;61495;53.400;7.608;2023-04-01T01:39:10;12.38;;;6.47;;
73266;SDS011;61495;53.400;7.608;2023-04-01T01:41:37;10.63;;;6.10;;
73266;SDS011;61495;53.400;7.608;2023-04-01T01:44:06;11.48;;;7.20;;
73266;SDS011;61495;53.400;7.608;2023-04-01T01:46:34;11.48;;;6.88;;
73266;SDS011;61495;53.400;7.608;2023-04-01T01:49:03;12.50;;;6.82;;
73266;SDS011;61495;53.400;7.608;2023-04-01T01:51:30;13.85;;;7.03;;
73266;SDS011;61495;53.400;7.608;2023-04-01T01:53:55;12.82;;;6.65;;
73266;SDS011;61495;53.400;7.608;2023-04-01T01:56:22;12.13;;;6.82;;
73266;SDS011;61495;53.400;7.608;2023-04-01T01:58:52;15.25;;;8.20;;
73266;SDS011;61495;53.400;7.608;2023-04-01T02:01:24;12.85;;;7.07;;
73266;SDS011;61495;53.400;7.608;2023-04-01T02:03:52;12.50;;;7.38;;
73266;SDS011;61495;53.400;7.608;2023-04-01T02:06:19;12.77;;;7.38;;
73266;SDS011;61495;53.400;7.608;2023-04-01T02:11:18;15.23;;;8.15;;
73266;SDS011;61495;53.400;7.608;2023-04-01T02:14:08;14.52;;;8.68;;
73266;SDS011;61495;53.400;7.608;2023-04-01T02:16:40;16.50;;;9.05;;
73266;SDS011;61495;53.400;7.608;2023-04-01T02:19:14;15.13;;;9.02;;
73266;SDS011;61495;53.400;7.608;2023-04-01T02:21:47;14.98;;;9.00;;
73266;SDS011;61495;53.400;7.608;2023-04-01T02:24:18;14.73;;;9.70;;
73266;SDS011;61495;53.400;7.608;2023-04-01T02:26:47;14.05;;;9.25;;
73266;SDS011;61495;53.400;7.608;2023-04-01T02:29:15;15.15;;;7.55;;
73266;SDS011;61495;53.400;7.608;2023-04-01T02:31:43;14.77;;;8.70;;
73266;SDS011;61495;53.400;7.608;2023-04-01T02:34:08;13.90;;;8.38;;
73266;SDS011;61495;53.400;7.608;2023-04-01T02:36:34;14.90;;;8.75;;
73266;SDS011;61495;53.400;7.608;2023-04-01T02:39:01;17.13;;;9.75;;
73266;SDS011;61495;53.400;7.608;2023-04-01T02:41:29;14.68;;;8.38;;
73266;SDS011;61495;53.400;7.608;2023-04-01T02:43:55;15.40;;;9.43;;
73266;SDS011;61495;53.400;7.608;2023-04-01T02:46:22;15.80;;;9.25;;
73266;SDS011;61495;53.400;7.608;2023-04-01T02:48:47;16.45;;;10.27;;
73266;SDS011;61495;53.400;7.608;2023-04-01T02:51:13;15.60;;;9.15;;
73266;SDS011;61495;53.400;7.608;2023-04-01T02:53:38;17.00;;;9.35;;
73266;SDS011;61495;53.400;7.608;2023-04-01T02:56:04;14.35;;;8.77;;
73266;SDS011;61495;53.400;7.608;2023-04-01T02:58:29;15.45;;;8.52;;
73266;SDS011;61495;53.400;7.608;2023-04-01T03:00:54;15.43;;;8.50;;
73266;SDS011;61495;53.400;7.608;2023-04-01T03:03:20;15.43;;;9.48;;
73266;SDS011;61495;53.400;7.608;2023-04-01T03:05:45;15.23;;;9.63;;
73266;SDS011;61495;53.400;7.608;2023-04-01T03:08:11;16.20;;;9.70;;
73266;SDS011;61495;53.400;7.608;2023-04-01T03:10:37;16.35;;;9.20;;
73266;SDS011;61495;53.400;7.608;2023-04-01T03:13:02;17.00;;;8.68;;
73266;SDS011;61495;53.400;7.608;2023-04-01T03:15:27;17.23;;;8.90;;
73266;SDS011;61495;53.400;7.608;2023-04-01T03:17:53;15.40;;;8.70;;
73266;SDS011;61495;53.400;7.608;2023-04-01T03:20:18;14.07;;;9.07;;
73266;SDS011;61495;53.400;7.608;2023-04-01T03:22:45;15.50;;;8.95;;
73266;SDS011;61495;53.400;7.608;2023-04-01T03:25:11;14.60;;;8.38;;
73266;SDS011;61495;53.400;7.608;2023-04-01T03:27:36;16.05;;;9.70;;
73266;SDS011;61495;53.400;7.608;2023-04-01T03:30:02;15.68;;;8.93;;
73266;SDS011;61495;53.400;7.608;2023-04-01T03:32:29;15.93;;;9.55;;
73266;SDS011;61495;53.400;7.608;2023-04-01T03:34:54;16.83;;;9.27;;
73266;SDS011;61495;53.400;7.608;2023-04-01T03:37:19;18.92;;;9.15;;
73266;SDS011;61495;53.400;7.608;2023-04-01T03:39:45;17.40;;;9.35;;
73266;SDS011;61495;53.400;7.608;2023-04-01T03:42:11;16.98;;;9.18;;
73266;SDS011;61495;53.400;7.608;2023-04-01T03:44:36;16.27;;;9.07;;
73266;SDS011;61495;53.400;7.608;2023-04-01T03:47:02;18.45;;;9.73;;
73266;SDS011;61495;53.400;7.608;2023-04-01T03:49:27;17.00;;;9.23;;
73266;SDS011;61495;53.400;7.608;2023-04-01T03:51:53;17.08;;;9.45;;
73266;SDS011;61495;53.400;7.608;2023-04-01T03:54:18;17.48;;;8.93;;
73266;SDS011;61495;53.400;7.608;2023-04-01T03:56:45;15.82;;;9.27;;
73266;SDS011;61495;53.400;7.608;2023-04-01T03:59:11;17.33;;;8.73;;
73266;SDS011;61495;53.400;7.608;2023-04-01T04:01:36;13.95;;;8.05;;
73266;SDS011;61495;53.400;7.608;2023-04-01T04:04:02;13.60;;;8.18;;
73266;SDS011;61495;53.400;7.608;2023-04-01T04:06:28;14.85;;;8.98;;
73266;SDS011;61495;53.400;7.608;2023-04-01T04:08:53;16.08;;;8.45;;
73266;SDS011;61495;53.400;7.608;2023-04-01T04:11:19;15.50;;;9.13;;
73266;SDS011;61495;53.400;7.608;2023-04-01T04:13:46;14.43;;;8.98;;
73266;SDS011;61495;53.400;7.608;2023-04-01T04:16:12;17.35;;;8.77;;
73266;SDS011;61495;53.400;7.608;2023-04-01T04:18:39;14.45;;;8.25;;
73266;SDS011;61495;53.400;7.608;2023-04-01T04:21:04;16.35;;;8.75;;
73266;SDS011;61495;53.400;7.608;2023-04-01T04:23:30;16.90;;;8.30;;
73266;SDS011;61495;53.400;7.608;2023-04-01T04:26:05;17.63;;;9.35;;
73266;SDS011;61495;53.400;7.608;2023-04-01T04:28:32;15.38;;;9.40;;
73266;SDS011;61495;53.400;7.608;2023-04-01T04:30:58;15.07;;;8.35;;
73266;SDS011;61495;53.400;7.608;2023-04-01T04:33:24;16.08;;;9.32;;
73266;SDS011;61495;53.400;7.608;2023-04-01T04:35:50;16.00;;;8.85;;
73266;SDS011;61495;53.400;7.608;2023-04-01T04:38:16;15.82;;;9.10;;
73266;SDS011;61495;53.400;7.608;2023-04-01T04:40:41;16.45;;;9.60;;
73266;SDS011;61495;53.400;7.608;2023-04-01T04:43:11;16.35;;;8.73;;
73266;SDS011;61495;53.400;7.608;2023-04-01T04:45:38;18.25;;;8.95;;
73266;SDS011;61495;53.400;7.608;2023-04-01T04:48:03;17.38;;;9.48;;
73266;SDS011;61495;53.400;7.608;2023-04-01T04:50:29;16.60;;;9.77;;
73266;SDS011;61495;53.400;7.608;2023-04-01T04:52:54;17.25;;;8.55;;
73266;SDS011;61495;53.400;7.608;2023-04-01T04:55:20;16.23;;;8.75;;
73266;SDS011;61495;53.400;7.608;2023-04-01T04:57:46;15.07;;;8.45;;
73266;SDS011;61495;53.400;7.608;2023-04-01T05:00:11;15.25;;;7.68;;
73266;SDS011;61495;53.400;7.608;2023-04-01T05:02:37;17.67;;;9.88;;
73266;SDS011;61495;53.400;7.608;2023-04-01T05:05:02;14.85;;;8.07;;
73266;SDS011;61495;53.400;7.608;2023-04-01T05:07:29;17.80;;;9.35;;
73266;SDS011;61495;53.400;7.608;2023-04-01T05:09:54;15.80;;;8.77;;
73266;SDS011;61495;53.400;7.608;2023-04-01T05:12:20;16.58;;;8.93;;
73266;SDS011;61495;53.400;7.608;2023-04-01T05:14:45;18.20;;;8.95;;
73266;SDS011;61495;53.400;7.608;2023-04-01T05:17:11;18.17;;;10.25;;
73266;SDS011;61495;53.400;7.608;2023-04-01T05:19:37;16.17;;;8.85;;
73266;SDS011;61495;53.400;7.608;2023-04-01T05:22:03;17.38;;;9.50;;
73266;SDS011;61495;53.400;7.608;2023-04-01T05:24:29;15.27;;;8.30;;
73266;SDS011;61495;53.400;7.608;2023-04-01T05:26:55;15.88;;;8.40;;
73266;SDS011;61495;53.400;7.608;2023-04-01T05:29:21;18.95;;;9.30;;
73266;SDS011;61495;53.400;7.608;2023-04-01T05:31:46;16.55;;;9.27;;
73266;SDS011;61495;53.400;7.608;2023-04-01T05:34:12;18.42;;;8.52;;
73266;SDS011;61495;53.400;7.608;2023-04-01T05:36:38;16.27;;;8.82;;
73266;SDS011;61495;53.400;7.608;2023-04-01T05:39:03;17.70;;;9.23;;
73266;SDS011;61495;53.400;7.608;2023-04-01T05:41:29;17.27;;;9.45;;
73266;SDS011;61495;53.400;7.608;2023-04-01T05:43:54;15.55;;;9.23;;
73266;SDS011;61495;53.400;7.608;2023-04-01T05:46:20;17.00;;;8.10;;
73266;SDS011;61495;53.400;7.608;2023-04-01T05:48:45;16.48;;;9.10;;
73266;SDS011;61495;53.400;7.608;2023-04-01T05:51:12;16.88;;;9.05;;
73266;SDS011;61495;53.400;7.608;2023-04-01T05:53:38;18.13;;;10.40;;
73266;SDS011;61495;53.400;7.608;2023-04-01T05:56:04;17.55;;;8.77;;
73266;SDS011;61495;53.400;7.608;2023-04-01T05:58:30;18.63;;;9.40;;
73266;SDS011;61495;53.400;7.608;2023-04-01T06:01:05;18.20;;;8.85;;
73266;SDS011;61495;53.400;7.608;2023-04-01T06:03:35;18.10;;;9.65;;
73266;SDS011;61495;53.400;7.608;2023-04-01T06:06:00;18.60;;;9.85;;
73266;SDS011;61495;53.400;7.608;2023-04-01T06:08:27;17.73;;;9.25;;
73266;SDS011;61495;53.400;7.608;2023-04-01T06:11:04;19.17;;;10.13;;
73266;SDS011;61495;53.400;7.608;2023-04-01T06:14:20;19.25;;;9.43;;
73266;SDS011;61495;53.400;7.608;2023-04-01T06:22:26;17.15;;;8.93;;
73266;SDS011;61495;53.400;7.608;2023-04-01T06:38:55;15.45;;;8.52;;
73266;SDS011;61495;53.400;7.608;2023-04-01T06:41:39;16.20;;;8.27;;
73266;SDS011;61495;53.400;7.608;2023-04-01T06:47:19;14.68;;;7.50;;
73266;SDS011;61495;53.400;7.608;2023-04-01T06:55:44;11.38;;;6.53;;
73266;SDS011;61495;53.400;7.608;2023-04-01T06:59:09;13.27;;;6.78;;
73266;SDS011;61495;53.400;7.608;2023-04-01T07:04:06;14.15;;;8.27;;
73266;SDS011;61495;53.400;7.608;2023-04-01T07:06:39;12.75;;;6.97;;
73266;SDS011;61495;53.400;7.608;2023-04-01T07:09:27;14.00;;;7.15;;
73266;SDS011;61495;53.400;7.608;2023-04-01T07:14:31;13.13;;;6.93;;
73266;SDS011;61495;53.400;7.608;2023-04-01T07:17:22;14.77;;;7.50;;
73266;SDS011;61495;53.400;7.608;2023-04-01T07:22:29;13.93;;;7.20;;
73266;SDS011;61495;53.400;7.608;2023-04-01T07:24:56;13.57;;;7.15;;
73266;SDS011;61495;53.400;7.608;2023-04-01T07:27:26;15.45;;;7.70;;
73266;SDS011;61495;53.400;7.608;2023-04-01T07:29:51;14.20;;;7.70;;
73266;SDS011;61495;53.400;7.608;2023-04-01T07:32:19;16.10;;;8.10;;
73266;SDS011;61495;53.400;7.608;2023-04-01T07:35:02;15.95;;;9.48;;
73266;SDS011;61495;53.400;7.608;2023-04-01T07:40:31;15.80;;;8.20;;
73266;SDS011;61495;53.400;7.608;2023-04-01T07:58:58;3.83;;;2.13;;
73266;SDS011;61495;53.400;7.608;2023-04-01T08:06:52;5.07;;;2.00;;
73266;SDS011;61495;53.400;7.608;2023-04-01T08:15:16;2.78;;;1.45;;
73266;SDS011;61495;53.400;7.608;2023-04-01T08:20:45;3.17;;;1.70;;
73266;SDS011;61495;53.400;7.608;2023-04-01T08:23:27;3.20;;;1.50;;
73266;SDS011;61495;53.400;7.608;2023-04-01T08:28:32;3.45;;;1.50;;
73266;SDS011;61495;53.400;7.608;2023-04-01T08:32:03;2.92;;;1.45;;
73266;SDS011;61495;53.400;7.608;2023-04-01T08:34:18;2.70;;;1.48;;
73266;SDS011;61495;53.400;7.608;2023-04-01T08:36:51;2.85;;;1.38;;
73266;SDS011;61495;53.400;7.608;2023-04-01T08:39:29;2.83;;;1.58;;
73266;SDS011;61495;53.400;7.608;2023-04-01T09:11:45;2.50;;;1.50;;
73266;SDS011;61495;53.400;7.608;2023-04-01T09:20:23;2.33;;;1.40;;
73266;SDS011;61495;53.400;7.608;2023-04-01T09:29:02;2.25;;;1.23;;
73266;SDS011;61495;53.400;7.608;2023-04-01T09:48:39;4.65;;;1.50;;
73266;SDS011;61495;53.400;7.608;2023-04-01T09:54:08;2.95;;;1.60;;
73266;SDS011;61495;53.400;7.608;2023-04-01T10:02:59;2.47;;;1.30;;
73266;SDS011;61495;53.400;7.608;2023-04-01T11:25:52;2.40;;;1.13;;
73266;SDS011;61495;53.400;7.608;2023-04-01T11:44:27;2.35;;;1.38;;
73266;SDS011;61495;53.400;7.608;2023-04-01T11:49:46;2.97;;;1.40;;
73266;SDS011;61495;53.400;7.608;2023-04-01T11:55:06;3.38;;;1.50;;
73266;SDS011;61495;53.400;7.608;2023-04-01T11:57:53;1.80;;;0.90;;
73266;SDS011;61495;53.400;7.608;2023-04-01T12:00:35;2.05;;;1.27;;
73266;SDS011;61495;53.400;7.608;2023-04-01T12:06:14;2.63;;;1.50;;
73266;SDS011;61495;53.400;7.608;2023-04-01T12:14:05;1.75;;;1.08;;
73266;SDS011;61495;53.400;7.608;2023-04-01T12:27:42;3.05;;;1.27;;
73266;SDS011;61495;53.400;7.608;2023-04-01T12:30:24;2.50;;;1.30;;
73266;SDS011;61495;53.400;7.608;2023-04-01T12:38:35;1.98;;;1.25;;
73266;SDS011;61495;53.400;7.608;2023-04-01T12:44:23;1.90;;;0.93;;
73266;SDS011;61495;53.400;7.608;2023-04-01T12:55:23;1.83;;;1.30;;
73266;SDS011;61495;53.400;7.608;2023-04-01T12:58:08;2.90;;;1.50;;
73266;SDS011;61495;53.400;7.608;2023-04-01T13:14:41;2.15;;;1.20;;
73266;SDS011;61495;53.400;7.608;2023-04-01T13:17:46;2.00;;;1.17;;
73266;SDS011;61495;53.400;7.608;2023-04-01T13:20:21;2.33;;;1.10;;
73266;SDS011;61495;53.400;7.608;2023-04-01T13:23:14;2.05;;;1.50;;
73266;SDS011;61495;53.400;7.608;2023-04-01T13:26:09;2.47;;;1.20;;
73266;SDS011;61495;53.400;7.608;2023-04-01T13:39:19;3.28;;;1.95;;
73266;SDS011;61495;53.400;7.608;2023-04-01T13:42:21;3.75;;;1.48;;
73266;SDS011;61495;53.400;7.608;2023-04-01T14:00:42;4.25;;;2.75;;
73266;SDS011;61495;53.400;7.608;2023-04-01T14:09:11;7.25;;;2.22;;
73266;SDS011;61495;53.400;7.608;2023-04-01T14:14:43;3.60;;;1.90;;
73266;SDS011;61495;53.400;7.608;2023-04-01T14:23:28;3.70;;;1.70;;
73266;SDS011;61495;53.400;7.608;2023-04-01T14:31:53;6.28;;;2.15;;
73266;SDS011;61495;53.400;7.608;2023-04-01T14:34:31;4.10;;;2.47;;
73266;SDS011;61495;53.400;7.608;2023-04-01T14:45:41;3.72;;;2.20;;
73266;SDS011;61495;53.400;7.608;2023-04-01T14:54:00;7.03;;;3.40;;
73266;SDS011;61495;53.400;7.608;2023-04-01T14:56:41;5.50;;;2.85;;
73266;SDS011;61495;53.400;7.608;2023-04-01T14:59:25;6.75;;;4.07;;
73266;SDS011;61495;53.400;7.608;2023-04-01T15:02:01;8.15;;;4.63;;
73266;SDS011;61495;53.400;7.608;2023-04-01T15:16:05;6.00;;;2.97;;
73266;SDS011;61495;53.400;7.608;2023-04-01T15:22:05;9.02;;;3.42;;
73266;SDS011;61495;53.400;7.608;2023-04-01T15:24:56;6.57;;;3.38;;
73266;SDS011;61495;53.400;7.608;2023-04-01T15:30:35;7.22;;;3.53;;
73266;SDS011;61495;53.400;7.608;2023-04-01T15:41:23;6.10;;;2.95;;
73266;SDS011;61495;53.400;7.608;2023-04-01T15:43:59;7.18;;;3.75;;
73266;SDS011;61495;53.400;7.608;2023-04-01T15:52:05;9.25;;;3.10;;
73266;SDS011;61495;53.400;7.608;2023-04-01T15:54:51;7.95;;;3.83;;
73266;SDS011;61495;53.400;7.608;2023-04-01T15:57:48;7.97;;;4.20;;
73266;SDS011;61495;53.400;7.608;2023-04-01T16:13:51;6.13;;;3.03;;
73266;SDS011;61495;53.400;7.608;2023-04-01T16:16:34;5.38;;;2.70;;
73266;SDS011;61495;53.400;7.608;2023-04-01T16:19:37;6.53;;;3.13;;
73266;SDS011;61495;53.400;7.608;2023-04-01T16:22:08;6.35;;;3.22;;
73266;SDS011;61495;53.400;7.608;2023-04-01T16:24:49;5.72;;;3.17;;
73266;SDS011;61495;53.400;7.608;2023-04-01T16:35:45;4.93;;;2.95;;
73266;SDS011;61495;53.400;7.608;2023-04-01T16:43:39;4.97;;;2.85;;
73266;SDS011;61495;53.400;7.608;2023-04-01T16:46:20;6.07;;;2.72;;
73266;SDS011;61495;53.400;7.608;2023-04-01T16:51:44;7.03;;;3.38;;
73266;SDS011;61495;53.400;7.608;2023-04-01T16:54:18;7.45;;;3.03;;
73266;SDS011;61495;53.400;7.608;2023-04-01T16:59:37;5.20;;;2.95;;
73266;SDS011;61495;53.400;7.608;2023-04-01T17:02:12;5.35;;;3.45;;
73266;SDS011;61495;53.400;7.608;2023-04-01T17:04:55;5.85;;;3.30;;
73266;SDS011;61495;53.400;7.608;2023-04-01T17:15:54;6.85;;;3.00;;
73266;SDS011;61495;53.400;7.608;2023-04-01T17:24:57;7.82;;;2.92;;
73266;SDS011;61495;53.400;7.608;2023-04-01T17:38:34;7.45;;;3.17;;
73266;SDS011;61495;53.400;7.608;2023-04-01T17:46:31;6.50;;;3.00;;
73266;SDS011;61495;53.400;7.608;2023-04-01T17:52:30;7.75;;;2.70;;
73266;SDS011;61495;53.400;7.608;2023-04-01T17:57:50;9.25;;;3.70;;
73266;SDS011;61495;53.400;7.608;2023-04-01T18:00:30;9.82;;;4.18;;
73266;SDS011;61495;53.400;7.608;2023-04-01T18:08:50;10.93;;;4.55;;
73266;SDS011;61495;53.400;7.608;2023-04-01T18:11:18;9.77;;;3.65;;
73266;SDS011;61495;53.400;7.608;2023-04-01T18:22:36;7.38;;;3.70;;
73266;SDS011;61495;53.400;7.608;2023-04-01T18:27:53;8.73;;;3.35;;
73266;SDS011;61495;53.400;7.608;2023-04-01T18:30:40;8.18;;;3.75;;
73266;SDS011;61495;53.400;7.608;2023-04-01T18:36:15;8.27;;;3.53;;
73266;SDS011;61495;53.400;7.608;2023-04-01T18:38:55;10.35;;;3.78;;
73266;SDS011;61495;53.400;7.608;2023-04-01T18:44:19;6.35;;;3.45;;
73266;SDS011;61495;53.400;7.608;2023-04-01T18:46:55;8.57;;;3.88;;
73266;SDS011;61495;53.400;7.608;2023-04-01T18:52:44;6.13;;;2.95;;
73266;SDS011;61495;53.400;7.608;2023-04-01T18:55:18;8.20;;;3.38;;
73266;SDS011;61495;53.400;7.608;2023-04-01T19:06:20;6.25;;;3.33;;
73266;SDS011;61495;53.400;7.608;2023-04-01T19:08:51;6.88;;;2.60;;
73266;SDS011;61495;53.400;7.608;2023-04-01T19:11:20;6.22;;;2.90;;
73266;SDS011;61495;53.400;7.608;2023-04-01T19:19:16;6.45;;;2.55;;
73266;SDS011;61495;53.400;7.608;2023-04-01T19:22:00;7.38;;;2.70;;
73266;SDS011;61495;53.400;7.608;2023-04-01T19:30:17;7.75;;;2.88;;
73266;SDS011;61495;53.400;7.608;2023-04-01T19:38:22;6.15;;;2.65;;
73266;SDS011;61495;53.400;7.608;2023-04-01T19:41:04;6.43;;;3.28;;
73266;SDS011;61495;53.400;7.608;2023-04-01T19:51:47;6.10;;;2.88;;
73266;SDS011;61495;53.400;7.608;2023-04-01T19:56:57;4.43;;;1.95;;
73266;SDS011;61495;53.400;7.608;2023-04-01T20:02:24;6.82;;;2.35;;
73266;SDS011;61495;53.400;7.608;2023-04-01T20:05:22;6.97;;;2.90;;
73266;SDS011;61495;53.400;7.608;2023-04-01T20:07:57;6.18;;;2.63;;
73266;SDS011;61495;53.400;7.608;2023-04-01T20:13:51;10.93;;;2.70;;
73266;SDS011;61495;53.400;7.608;2023-04-01T20:16:49;5.65;;;2.35;;
73266;SDS011;61495;53.400;7.608;2023-04-01T20:19:43;8.43;;;2.45;;
73266;SDS011;61495;53.400;7.608;2023-04-01T20:22:20;10.32;;;2.60;;
73266;SDS011;61495;53.400;7.608;2023-04-01T20:24:53;6.30;;;2.05;;
73266;SDS011;61495;53.400;7.608;2023-04-01T20:27:30;6.55;;;2.85;;
73266;SDS011;61495;53.400;7.608;2023-04-01T20:30:19;7.28;;;2.63;;
73266;SDS011;61495;53.400;7.608;2023-04-01T20:32:55;4.90;;;2.47;;
73266;SDS011;61495;53.400;7.608;2023-04-01T20:35:39;5.20;;;2.67;;
73266;SDS011;61495;53.400;7.608;2023-04-01T20:38:41;6.90;;;2.60;;
73266;SDS011;61495;53.400;7.608;2023-04-01T20:41:32;4.88;;;2.22;;
73266;SDS011;61495;53.400;7.608;2023-04-01T20:57:12;7.07;;;2.90;;
73266;SDS011;61495;53.400;7.608;2023-04-01T20:59:59;5.38;;;2.20;;
73266;SDS011;61495;53.400;7.608;2023-04-01T21:11:28;4.30;;;2.17;;
73266;SDS011;61495;53.400;7.608;2023-04-01T21:44:51;5.03;;;1.95;;
73266;SDS011;61495;53.400;7.608;2023-04-01T21:58:31;4.80;;;1.95;;
73266;SDS011;61495;53.400;7.608;2023-04-01T22:01:19;4.90;;;1.77;;
73266;SDS011;61495;53.400;7.608;2023-04-01T22:06:30;5.22;;;1.77;;
73266;SDS011;61495;53.400;7.608;2023-04-01T22:09:28;5.20;;;2.10;;
73266;SDS011;61495;53.400;7.608;2023-04-01T22:15:05;4.85;;;2.10;;
73266;SDS011;61495;53.400;7.608;2023-04-01T22:18:04;6.32;;;2.03;;
73266;SDS011;61495;53.400;7.608;2023-04-01T22:21:03;7.72;;;1.70;;
73266;SDS011;61495;53.400;7.608;2023-04-01T22:23:51;3.92;;;2.00;;
73266;SDS011;61495;53.400;7.608;2023-04-01T22:29:10;5.28;;;1.33;;
73266;SDS011;61495;53.400;7.608;2023-04-01T22:32:00;5.78;;;1.77;;
73266;SDS011;61495;53.400;7.608;2023-04-01T22:37:26;6.13;;;1.70;;
73266;SDS011;61495;53.400;7.608;2023-04-01T22:40:32;3.72;;;1.95;;
73266;SDS011;61495;53.400;7.608;2023-04-01T22:43:54;5.03;;;1.85;;
73266;SDS011;61495;53.400;7.608;2023-04-01T22:48:55;5.20;;;2.13;;
73266;SDS011;61495;53.400;7.608;2023-04-01T22:51:43;3.88;;;1.70;;
73266;SDS011;61495;53.400;7.608;2023-04-01T22:54:24;4.95;;;1.80;;
73266;SDS011;61495;53.400;7.608;2023-04-01T22:59:37;6.20;;;1.58;;
73266;SDS011;61495;53.400;7.608;2023-04-01T23:02:23;5.00;;;1.50;;
73266;SDS011;61495;53.400;7.608;2023-04-01T23:04:54;5.32;;;1.90;;
73266;SDS011;61495;53.400;7.608;2023-04-01T23:10:02;3.25;;;1.67;;
73266;SDS011;61495;53.400;7.608;2023-04-01T23:12:37;4.45;;;2.33;;
73266;SDS011;61495;53.400;7.608;2023-04-01T23:15:05;3.63;;;1.27;;
73266;SDS011;61495;53.400;7.608;2023-04-01T23:17:39;4.25;;;2.08;;
73266;SDS011;61495;53.400;7.608;2023-04-01T23:25:24;5.75;;;1.92;;
73266;SDS011;61495;53.400;7.608;2023-04-01T23:35:47;4.90;;;2.00;;
73266;SDS011;61495;53.400;7.608;2023-04-01T23:38:15;6.78;;;2.13;;
73266;SDS011;61495;53.400;7.608;2023-04-01T23:40:41;5.60;;;1.75;;
73266;SDS011;61495;53.400;7.608;2023-04-01T23:43:12;5.63;;;1.52;;
73266;SDS011;61495;53.400;7.608;2023-04-01T23:45:41;5.90;;;1.83;;
73266;SDS011;61495;53.400;7.608;2023-04-01T23:48:10;6.35;;;1.95;;
73266;SDS011;61495;53.400;7.608;2023-04-01T23:50:38;6.07;;;2.10;;
73266;SDS011;61495;53.400;7.608;2023-04-01T23:53:11;4.18;;;1.73;;
73266;SDS011;61495;53.400;7.608;2023-04-01T23:55:42;6.60;;;2.08;;
